sensor_id;sensor_type;location;lat;lon;timestamp;P1;durP1;ratioP1;P2;durP2;ratioP2
22644;SDS011;11489;50.834;6.752;2023-09-12T00:00:57;7.75;;;4.55;;
22644;SDS011;11489;50.834;6.752;2023-09-12T00:03:23;6.40;;;4.35;;
22644;SDS011;11489;50.834;6.752;2023-09-12T00:05:55;5.55;;;4.43;;
22644;SDS011;11489;50.834;6.752;2023-09-12T00:08:22;8.68;;;4.32;;
22644;SDS011;11489;50.834;6.752;2023-09-12T00:13:43;5.95;;;4.22;;
22644;SDS011;11489;50.834;6.752;2023-09-12T00:16:10;6.38;;;4.50;;
22644;SDS011;11489;50.834;6.752;2023-09-12T00:18:39;7.00;;;4.43;;
22644;SDS011;11489;50.834;6.752;2023-09-12T00:21:05;6.43;;;4.18;;
22644;SDS011;11489;50.834;6.752;2023-09-12T00:23:31;8.43;;;4.18;;
22644;SDS011;11489;50.834;6.752;2023-09-12T00:25:57;7.43;;;4.25;;
22644;SDS011;11489;50.834;6.752;2023-09-12T00:28:23;6.13;;;4.07;;
22644;SDS011;11489;50.834;6.752;2023-09-12T00:30:49;6.30;;;3.58;;
22644;SDS011;11489;50.834;6.752;2023-09-12T00:33:16;5.88;;;3.97;;
22644;SDS011;11489;50.834;6.752;2023-09-12T00:35:43;6.78;;;4.22;;
22644;SDS011;11489;50.834;6.752;2023-09-12T00:38:09;5.85;;;4.03;;
22644;SDS011;11489;50.834;6.752;2023-09-12T00:40:34;5.82;;;3.70;;
22644;SDS011;11489;50.834;6.752;2023-09-12T00:43:00;5.63;;;3.70;;
22644;SDS011;11489;50.834;6.752;2023-09-12T00:45:26;4.97;;;3.88;;
22644;SDS011;11489;50.834;6.752;2023-09-12T00:47:51;5.32;;;3.97;;
22644;SDS011;11489;50.834;6.752;2023-09-12T00:50:18;10.90;;;4.13;;
22644;SDS011;11489;50.834;6.752;2023-09-12T00:52:46;6.97;;;4.13;;
22644;SDS011;11489;50.834;6.752;2023-09-12T00:55:13;6.22;;;4.70;;
22644;SDS011;11489;50.834;6.752;2023-09-12T00:57:39;6.00;;;4.25;;
22644;SDS011;11489;50.834;6.752;2023-09-12T01:00:06;7.15;;;4.30;;
22644;SDS011;11489;50.834;6.752;2023-09-12T01:02:39;6.05;;;4.32;;
22644;SDS011;11489;50.834;6.752;2023-09-12T01:05:07;5.13;;;4.07;;
22644;SDS011;11489;50.834;6.752;2023-09-12T01:07:34;7.28;;;4.88;;
22644;SDS011;11489;50.834;6.752;2023-09-12T01:10:02;6.88;;;4.32;;
22644;SDS011;11489;50.834;6.752;2023-09-12T01:12:28;7.40;;;4.82;;
22644;SDS011;11489;50.834;6.752;2023-09-12T01:14:54;6.88;;;4.80;;
22644;SDS011;11489;50.834;6.752;2023-09-12T01:17:21;6.50;;;4.75;;
22644;SDS011;11489;50.834;6.752;2023-09-12T01:19:47;5.80;;;4.57;;
22644;SDS011;11489;50.834;6.752;2023-09-12T01:22:27;9.23;;;4.72;;
22644;SDS011;11489;50.834;6.752;2023-09-12T01:25:08;7.60;;;5.07;;
22644;SDS011;11489;50.834;6.752;2023-09-12T01:28:09;8.35;;;4.88;;
22644;SDS011;11489;50.834;6.752;2023-09-12T01:30:31;8.38;;;4.85;;
22644;SDS011;11489;50.834;6.752;2023-09-12T01:32:59;10.63;;;5.50;;
22644;SDS011;11489;50.834;6.752;2023-09-12T01:35:26;6.95;;;5.32;;
22644;SDS011;11489;50.834;6.752;2023-09-12T01:37:51;7.88;;;5.15;;
22644;SDS011;11489;50.834;6.752;2023-09-12T01:40:17;7.10;;;5.05;;
22644;SDS011;11489;50.834;6.752;2023-09-12T01:42:52;7.80;;;4.97;;
22644;SDS011;11489;50.834;6.752;2023-09-12T01:45:19;7.70;;;5.35;;
22644;SDS011;11489;50.834;6.752;2023-09-12T01:47:45;11.50;;;5.53;;
22644;SDS011;11489;50.834;6.752;2023-09-12T01:50:12;7.55;;;5.50;;
22644;SDS011;11489;50.834;6.752;2023-09-12T01:52:39;8.27;;;5.50;;
22644;SDS011;11489;50.834;6.752;2023-09-12T01:55:06;8.55;;;5.78;;
22644;SDS011;11489;50.834;6.752;2023-09-12T01:57:34;8.90;;;5.47;;
22644;SDS011;11489;50.834;6.752;2023-09-12T02:00:04;8.10;;;5.53;;
22644;SDS011;11489;50.834;6.752;2023-09-12T02:02:30;7.00;;;5.50;;
22644;SDS011;11489;50.834;6.752;2023-09-12T02:05:12;8.80;;;5.32;;
22644;SDS011;11489;50.834;6.752;2023-09-12T02:07:43;7.03;;;5.15;;
22644;SDS011;11489;50.834;6.752;2023-09-12T02:10:10;6.45;;;5.07;;
22644;SDS011;11489;50.834;6.752;2023-09-12T02:12:36;6.25;;;5.28;;
22644;SDS011;11489;50.834;6.752;2023-09-12T02:15:02;7.07;;;5.50;;
22644;SDS011;11489;50.834;6.752;2023-09-12T02:17:28;10.23;;;6.00;;
22644;SDS011;11489;50.834;6.752;2023-09-12T02:19:53;10.65;;;6.28;;
22644;SDS011;11489;50.834;6.752;2023-09-12T02:22:19;8.65;;;5.93;;
22644;SDS011;11489;50.834;6.752;2023-09-12T02:24:45;8.52;;;6.32;;
22644;SDS011;11489;50.834;6.752;2023-09-12T02:27:10;12.35;;;6.43;;
22644;SDS011;11489;50.834;6.752;2023-09-12T02:29:38;8.70;;;6.72;;
22644;SDS011;11489;50.834;6.752;2023-09-12T02:32:04;10.80;;;6.35;;
22644;SDS011;11489;50.834;6.752;2023-09-12T02:34:30;9.80;;;6.90;;
22644;SDS011;11489;50.834;6.752;2023-09-12T02:36:56;11.40;;;7.03;;
22644;SDS011;11489;50.834;6.752;2023-09-12T02:39:21;11.18;;;6.68;;
22644;SDS011;11489;50.834;6.752;2023-09-12T02:41:47;10.45;;;6.47;;
22644;SDS011;11489;50.834;6.752;2023-09-12T02:44:13;12.82;;;7.80;;
22644;SDS011;11489;50.834;6.752;2023-09-12T02:46:38;11.95;;;8.05;;
22644;SDS011;11489;50.834;6.752;2023-09-12T02:49:04;13.05;;;8.07;;
22644;SDS011;11489;50.834;6.752;2023-09-12T02:51:30;10.25;;;7.20;;
22644;SDS011;11489;50.834;6.752;2023-09-12T02:53:56;11.13;;;8.00;;
22644;SDS011;11489;50.834;6.752;2023-09-12T02:56:21;11.10;;;7.68;;
22644;SDS011;11489;50.834;6.752;2023-09-12T02:58:48;14.00;;;7.82;;
22644;SDS011;11489;50.834;6.752;2023-09-12T03:01:18;12.82;;;8.02;;
22644;SDS011;11489;50.834;6.752;2023-09-12T03:03:48;12.52;;;7.72;;
22644;SDS011;11489;50.834;6.752;2023-09-12T03:06:14;11.00;;;7.80;;
22644;SDS011;11489;50.834;6.752;2023-09-12T03:08:41;14.05;;;7.97;;
22644;SDS011;11489;50.834;6.752;2023-09-12T03:11:08;12.63;;;8.18;;
22644;SDS011;11489;50.834;6.752;2023-09-12T03:13:34;13.05;;;8.32;;
22644;SDS011;11489;50.834;6.752;2023-09-12T03:16:01;13.73;;;8.18;;
22644;SDS011;11489;50.834;6.752;2023-09-12T03:18:27;12.65;;;8.63;;
22644;SDS011;11489;50.834;6.752;2023-09-12T03:20:52;16.30;;;8.93;;
22644;SDS011;11489;50.834;6.752;2023-09-12T03:23:21;15.15;;;8.18;;
22644;SDS011;11489;50.834;6.752;2023-09-12T03:25:47;12.10;;;8.57;;
22644;SDS011;11489;50.834;6.752;2023-09-12T03:28:12;14.82;;;8.98;;
22644;SDS011;11489;50.834;6.752;2023-09-12T03:30:38;14.38;;;8.82;;
22644;SDS011;11489;50.834;6.752;2023-09-12T03:33:04;11.95;;;8.50;;
22644;SDS011;11489;50.834;6.752;2023-09-12T03:35:33;12.85;;;8.40;;
22644;SDS011;11489;50.834;6.752;2023-09-12T03:37:59;13.95;;;9.30;;
22644;SDS011;11489;50.834;6.752;2023-09-12T03:40:27;12.52;;;8.40;;
22644;SDS011;11489;50.834;6.752;2023-09-12T03:42:54;13.55;;;9.20;;
22644;SDS011;11489;50.834;6.752;2023-09-12T03:45:20;15.85;;;8.63;;
22644;SDS011;11489;50.834;6.752;2023-09-12T03:47:46;13.10;;;8.90;;
22644;SDS011;11489;50.834;6.752;2023-09-12T03:50:12;13.38;;;9.43;;
22644;SDS011;11489;50.834;6.752;2023-09-12T03:52:39;13.65;;;8.38;;
22644;SDS011;11489;50.834;6.752;2023-09-12T03:55:04;14.20;;;8.38;;
22644;SDS011;11489;50.834;6.752;2023-09-12T03:57:30;12.30;;;8.68;;
22644;SDS011;11489;50.834;6.752;2023-09-12T03:59:56;11.40;;;8.30;;
22644;SDS011;11489;50.834;6.752;2023-09-12T04:02:22;11.55;;;8.50;;
22644;SDS011;11489;50.834;6.752;2023-09-12T04:04:48;9.98;;;8.10;;
22644;SDS011;11489;50.834;6.752;2023-09-12T04:07:14;13.43;;;8.23;;
22644;SDS011;11489;50.834;6.752;2023-09-12T04:09:40;12.10;;;9.07;;
22644;SDS011;11489;50.834;6.752;2023-09-12T04:12:05;14.63;;;9.13;;
22644;SDS011;11489;50.834;6.752;2023-09-12T04:14:32;14.38;;;8.60;;
22644;SDS011;11489;50.834;6.752;2023-09-12T04:16:57;14.07;;;8.48;;
22644;SDS011;11489;50.834;6.752;2023-09-12T04:19:24;12.90;;;9.30;;
22644;SDS011;11489;50.834;6.752;2023-09-12T04:21:50;13.27;;;9.52;;
22644;SDS011;11489;50.834;6.752;2023-09-12T04:24:15;15.68;;;10.38;;
22644;SDS011;11489;50.834;6.752;2023-09-12T04:26:42;16.67;;;10.48;;
22644;SDS011;11489;50.834;6.752;2023-09-12T04:29:09;14.85;;;9.93;;
22644;SDS011;11489;50.834;6.752;2023-09-12T04:31:35;15.77;;;10.02;;
22644;SDS011;11489;50.834;6.752;2023-09-12T04:34:01;14.02;;;8.85;;
22644;SDS011;11489;50.834;6.752;2023-09-12T04:36:26;13.90;;;9.00;;
22644;SDS011;11489;50.834;6.752;2023-09-12T04:38:52;13.35;;;9.63;;
22644;SDS011;11489;50.834;6.752;2023-09-12T04:41:17;14.82;;;9.82;;
22644;SDS011;11489;50.834;6.752;2023-09-12T04:43:43;14.18;;;9.80;;
22644;SDS011;11489;50.834;6.752;2023-09-12T04:46:10;22.10;;;10.93;;
22644;SDS011;11489;50.834;6.752;2023-09-12T04:48:36;14.13;;;10.18;;
22644;SDS011;11489;50.834;6.752;2023-09-12T04:51:03;14.77;;;10.70;;
22644;SDS011;11489;50.834;6.752;2023-09-12T04:53:28;14.05;;;9.45;;
22644;SDS011;11489;50.834;6.752;2023-09-12T04:56:03;13.73;;;9.32;;
22644;SDS011;11489;50.834;6.752;2023-09-12T04:58:29;13.18;;;9.38;;
22644;SDS011;11489;50.834;6.752;2023-09-12T05:00:55;15.00;;;10.00;;
22644;SDS011;11489;50.834;6.752;2023-09-12T05:03:21;12.48;;;9.10;;
22644;SDS011;11489;50.834;6.752;2023-09-12T05:05:47;15.18;;;9.80;;
22644;SDS011;11489;50.834;6.752;2023-09-12T05:08:15;15.30;;;9.68;;
22644;SDS011;11489;50.834;6.752;2023-09-12T05:10:40;18.00;;;9.70;;
22644;SDS011;11489;50.834;6.752;2023-09-12T05:13:08;13.95;;;9.55;;
22644;SDS011;11489;50.834;6.752;2023-09-12T05:15:34;15.68;;;10.13;;
22644;SDS011;11489;50.834;6.752;2023-09-12T05:17:59;15.23;;;10.75;;
22644;SDS011;11489;50.834;6.752;2023-09-12T05:20:25;15.43;;;10.55;;
22644;SDS011;11489;50.834;6.752;2023-09-12T05:22:51;18.42;;;11.60;;
22644;SDS011;11489;50.834;6.752;2023-09-12T05:25:16;15.98;;;10.73;;
22644;SDS011;11489;50.834;6.752;2023-09-12T05:27:42;20.10;;;11.13;;
22644;SDS011;11489;50.834;6.752;2023-09-12T05:30:07;19.02;;;11.55;;
22644;SDS011;11489;50.834;6.752;2023-09-12T05:32:33;16.63;;;10.77;;
22644;SDS011;11489;50.834;6.752;2023-09-12T05:34:59;17.13;;;11.65;;
22644;SDS011;11489;50.834;6.752;2023-09-12T05:37:25;17.27;;;11.52;;
22644;SDS011;11489;50.834;6.752;2023-09-12T05:39:50;17.30;;;11.50;;
22644;SDS011;11489;50.834;6.752;2023-09-12T05:42:16;18.23;;;12.23;;
22644;SDS011;11489;50.834;6.752;2023-09-12T05:44:50;21.38;;;12.35;;
22644;SDS011;11489;50.834;6.752;2023-09-12T05:47:19;16.63;;;10.88;;
22644;SDS011;11489;50.834;6.752;2023-09-12T05:49:45;19.33;;;11.68;;
22644;SDS011;11489;50.834;6.752;2023-09-12T05:52:11;15.30;;;10.68;;
22644;SDS011;11489;50.834;6.752;2023-09-12T05:54:37;17.58;;;10.98;;
22644;SDS011;11489;50.834;6.752;2023-09-12T05:57:04;14.63;;;10.13;;
22644;SDS011;11489;50.834;6.752;2023-09-12T05:59:30;16.77;;;10.93;;
22644;SDS011;11489;50.834;6.752;2023-09-12T06:01:55;16.40;;;10.63;;
22644;SDS011;11489;50.834;6.752;2023-09-12T06:04:21;17.65;;;11.48;;
22644;SDS011;11489;50.834;6.752;2023-09-12T06:06:47;16.98;;;12.15;;
22644;SDS011;11489;50.834;6.752;2023-09-12T06:09:13;18.35;;;11.52;;
22644;SDS011;11489;50.834;6.752;2023-09-12T06:11:38;16.40;;;10.65;;
22644;SDS011;11489;50.834;6.752;2023-09-12T06:14:04;16.00;;;10.48;;
22644;SDS011;11489;50.834;6.752;2023-09-12T06:16:29;17.45;;;9.75;;
22644;SDS011;11489;50.834;6.752;2023-09-12T06:18:55;20.52;;;11.45;;
22644;SDS011;11489;50.834;6.752;2023-09-12T06:21:21;19.52;;;11.73;;
22644;SDS011;11489;50.834;6.752;2023-09-12T06:23:47;16.45;;;10.20;;
22644;SDS011;11489;50.834;6.752;2023-09-12T06:26:13;18.45;;;10.27;;
22644;SDS011;11489;50.834;6.752;2023-09-12T06:28:39;17.88;;;11.23;;
22644;SDS011;11489;50.834;6.752;2023-09-12T06:31:07;17.88;;;10.13;;
22644;SDS011;11489;50.834;6.752;2023-09-12T06:33:34;17.58;;;10.57;;
22644;SDS011;11489;50.834;6.752;2023-09-12T06:36:00;15.75;;;10.60;;
22644;SDS011;11489;50.834;6.752;2023-09-12T06:38:26;18.45;;;10.88;;
22644;SDS011;11489;50.834;6.752;2023-09-12T06:40:51;19.13;;;12.32;;
22644;SDS011;11489;50.834;6.752;2023-09-12T06:43:17;19.45;;;12.32;;
22644;SDS011;11489;50.834;6.752;2023-09-12T06:45:43;19.00;;;11.63;;
22644;SDS011;11489;50.834;6.752;2023-09-12T06:48:09;17.17;;;11.00;;
22644;SDS011;11489;50.834;6.752;2023-09-12T06:50:35;19.33;;;12.18;;
22644;SDS011;11489;50.834;6.752;2023-09-12T06:53:04;18.70;;;11.52;;
22644;SDS011;11489;50.834;6.752;2023-09-12T06:55:32;16.88;;;11.07;;
22644;SDS011;11489;50.834;6.752;2023-09-12T06:57:58;16.75;;;10.73;;
22644;SDS011;11489;50.834;6.752;2023-09-12T07:00:23;18.17;;;11.63;;
22644;SDS011;11489;50.834;6.752;2023-09-12T07:02:49;16.08;;;11.02;;
22644;SDS011;11489;50.834;6.752;2023-09-12T07:05:15;17.70;;;11.98;;
22644;SDS011;11489;50.834;6.752;2023-09-12T07:07:40;16.20;;;11.38;;
22644;SDS011;11489;50.834;6.752;2023-09-12T07:10:06;19.33;;;11.45;;
22644;SDS011;11489;50.834;6.752;2023-09-12T07:12:32;16.10;;;11.18;;
22644;SDS011;11489;50.834;6.752;2023-09-12T07:14:58;16.70;;;10.98;;
22644;SDS011;11489;50.834;6.752;2023-09-12T07:17:23;15.43;;;11.00;;
22644;SDS011;11489;50.834;6.752;2023-09-12T07:19:49;15.40;;;10.82;;
22644;SDS011;11489;50.834;6.752;2023-09-12T07:22:16;15.50;;;10.77;;
22644;SDS011;11489;50.834;6.752;2023-09-12T07:24:41;17.25;;;10.73;;
22644;SDS011;11489;50.834;6.752;2023-09-12T07:27:07;14.25;;;10.13;;
22644;SDS011;11489;50.834;6.752;2023-09-12T07:29:33;15.15;;;10.60;;
22644;SDS011;11489;50.834;6.752;2023-09-12T07:31:58;16.50;;;10.35;;
22644;SDS011;11489;50.834;6.752;2023-09-12T07:34:24;15.25;;;10.38;;
22644;SDS011;11489;50.834;6.752;2023-09-12T07:36:50;12.30;;;9.95;;
22644;SDS011;11489;50.834;6.752;2023-09-12T07:39:16;13.40;;;9.70;;
22644;SDS011;11489;50.834;6.752;2023-09-12T07:41:42;18.38;;;10.23;;
22644;SDS011;11489;50.834;6.752;2023-09-12T07:44:08;13.40;;;10.07;;
22644;SDS011;11489;50.834;6.752;2023-09-12T07:46:37;13.50;;;9.52;;
22644;SDS011;11489;50.834;6.752;2023-09-12T07:49:03;15.77;;;9.35;;
22644;SDS011;11489;50.834;6.752;2023-09-12T07:51:29;13.88;;;9.75;;
22644;SDS011;11489;50.834;6.752;2023-09-12T07:53:54;13.88;;;9.32;;
22644;SDS011;11489;50.834;6.752;2023-09-12T07:56:20;12.80;;;9.05;;
22644;SDS011;11489;50.834;6.752;2023-09-12T07:58:45;12.85;;;8.88;;
22644;SDS011;11489;50.834;6.752;2023-09-12T08:01:11;12.45;;;7.90;;
22644;SDS011;11489;50.834;6.752;2023-09-12T08:03:37;10.98;;;8.00;;
22644;SDS011;11489;50.834;6.752;2023-09-12T08:06:04;11.65;;;7.88;;
22644;SDS011;11489;50.834;6.752;2023-09-12T08:08:30;12.65;;;7.78;;
22644;SDS011;11489;50.834;6.752;2023-09-12T08:10:56;9.80;;;7.78;;
22644;SDS011;11489;50.834;6.752;2023-09-12T08:13:22;10.13;;;7.40;;
22644;SDS011;11489;50.834;6.752;2023-09-12T08:15:51;15.10;;;8.90;;
22644;SDS011;11489;50.834;6.752;2023-09-12T08:18:17;11.30;;;8.02;;
22644;SDS011;11489;50.834;6.752;2023-09-12T08:20:43;9.00;;;8.05;;
22644;SDS011;11489;50.834;6.752;2023-09-12T08:23:09;12.82;;;8.73;;
22644;SDS011;11489;50.834;6.752;2023-09-12T08:25:34;12.10;;;8.13;;
22644;SDS011;11489;50.834;6.752;2023-09-12T08:28:00;12.82;;;7.60;;
22644;SDS011;11489;50.834;6.752;2023-09-12T08:30:26;10.27;;;7.95;;
22644;SDS011;11489;50.834;6.752;2023-09-12T08:32:54;9.75;;;7.47;;
22644;SDS011;11489;50.834;6.752;2023-09-12T08:35:21;11.90;;;8.40;;
22644;SDS011;11489;50.834;6.752;2023-09-12T08:37:46;10.52;;;7.72;;
22644;SDS011;11489;50.834;6.752;2023-09-12T08:40:13;12.77;;;8.05;;
22644;SDS011;11489;50.834;6.752;2023-09-12T08:42:39;12.00;;;8.05;;
22644;SDS011;11489;50.834;6.752;2023-09-12T08:45:07;12.02;;;7.95;;
22644;SDS011;11489;50.834;6.752;2023-09-12T08:47:42;9.60;;;7.53;;
22644;SDS011;11489;50.834;6.752;2023-09-12T08:50:13;8.77;;;6.97;;
22644;SDS011;11489;50.834;6.752;2023-09-12T08:52:40;9.07;;;7.45;;
22644;SDS011;11489;50.834;6.752;2023-09-12T08:55:09;10.77;;;7.80;;
22644;SDS011;11489;50.834;6.752;2023-09-12T08:57:36;16.73;;;7.90;;
22644;SDS011;11489;50.834;6.752;2023-09-12T09:00:04;11.95;;;7.38;;
22644;SDS011;11489;50.834;6.752;2023-09-12T09:02:32;10.32;;;7.82;;
22644;SDS011;11489;50.834;6.752;2023-09-12T09:04:59;9.85;;;7.70;;
22644;SDS011;11489;50.834;6.752;2023-09-12T09:07:27;10.57;;;7.05;;
22644;SDS011;11489;50.834;6.752;2023-09-12T09:09:54;8.68;;;6.32;;
22644;SDS011;11489;50.834;6.752;2023-09-12T09:12:21;7.43;;;6.13;;
22644;SDS011;11489;50.834;6.752;2023-09-12T09:14:46;8.52;;;6.68;;
22644;SDS011;11489;50.834;6.752;2023-09-12T09:17:12;7.10;;;6.10;;
22644;SDS011;11489;50.834;6.752;2023-09-12T09:19:41;7.18;;;5.45;;
22644;SDS011;11489;50.834;6.752;2023-09-12T09:22:08;5.80;;;5.20;;
22644;SDS011;11489;50.834;6.752;2023-09-12T09:24:34;7.88;;;5.30;;
22644;SDS011;11489;50.834;6.752;2023-09-12T09:26:59;7.03;;;4.72;;
22644;SDS011;11489;50.834;6.752;2023-09-12T09:29:26;6.65;;;4.90;;
22644;SDS011;11489;50.834;6.752;2023-09-12T09:31:58;7.22;;;5.75;;
22644;SDS011;11489;50.834;6.752;2023-09-12T09:34:27;7.75;;;5.53;;
22644;SDS011;11489;50.834;6.752;2023-09-12T09:36:55;9.80;;;6.25;;
22644;SDS011;11489;50.834;6.752;2023-09-12T09:39:25;12.70;;;6.38;;
22644;SDS011;11489;50.834;6.752;2023-09-12T09:41:54;8.73;;;5.43;;
22644;SDS011;11489;50.834;6.752;2023-09-12T09:44:21;9.40;;;6.43;;
22644;SDS011;11489;50.834;6.752;2023-09-12T09:46:54;8.45;;;6.47;;
22644;SDS011;11489;50.834;6.752;2023-09-12T09:49:21;9.93;;;5.85;;
22644;SDS011;11489;50.834;6.752;2023-09-12T09:51:47;11.02;;;7.43;;
22644;SDS011;11489;50.834;6.752;2023-09-12T09:54:13;9.15;;;6.07;;
22644;SDS011;11489;50.834;6.752;2023-09-12T09:56:46;9.68;;;5.72;;
22644;SDS011;11489;50.834;6.752;2023-09-12T09:59:14;6.53;;;5.72;;
22644;SDS011;11489;50.834;6.752;2023-09-12T10:01:44;8.95;;;5.53;;
22644;SDS011;11489;50.834;6.752;2023-09-12T10:04:11;7.22;;;5.78;;
22644;SDS011;11489;50.834;6.752;2023-09-12T10:06:37;5.35;;;4.80;;
22644;SDS011;11489;50.834;6.752;2023-09-12T10:09:11;5.40;;;4.80;;
22644;SDS011;11489;50.834;6.752;2023-09-12T10:11:38;6.88;;;5.30;;
22644;SDS011;11489;50.834;6.752;2023-09-12T10:14:05;8.13;;;5.50;;
22644;SDS011;11489;50.834;6.752;2023-09-12T10:16:33;6.55;;;5.85;;
22644;SDS011;11489;50.834;6.752;2023-09-12T10:19:10;6.45;;;5.65;;
22644;SDS011;11489;50.834;6.752;2023-09-12T10:21:52;10.65;;;6.15;;
22644;SDS011;11489;50.834;6.752;2023-09-12T10:24:34;6.85;;;5.95;;
22644;SDS011;11489;50.834;6.752;2023-09-12T10:27:00;6.68;;;5.65;;
22644;SDS011;11489;50.834;6.752;2023-09-12T10:29:29;5.97;;;5.40;;
22644;SDS011;11489;50.834;6.752;2023-09-12T10:31:55;6.55;;;5.80;;
22644;SDS011;11489;50.834;6.752;2023-09-12T10:34:21;6.50;;;5.30;;
22644;SDS011;11489;50.834;6.752;2023-09-12T10:36:50;7.45;;;5.85;;
22644;SDS011;11489;50.834;6.752;2023-09-12T10:39:16;7.20;;;6.05;;
22644;SDS011;11489;50.834;6.752;2023-09-12T10:41:44;5.90;;;5.30;;
22644;SDS011;11489;50.834;6.752;2023-09-12T10:44:14;7.97;;;6.20;;
22644;SDS011;11489;50.834;6.752;2023-09-12T10:46:41;5.80;;;5.03;;
22644;SDS011;11489;50.834;6.752;2023-09-12T10:49:10;5.28;;;4.78;;
22644;SDS011;11489;50.834;6.752;2023-09-12T10:51:40;7.00;;;5.03;;
22644;SDS011;11489;50.834;6.752;2023-09-12T10:54:07;5.72;;;4.72;;
22644;SDS011;11489;50.834;6.752;2023-09-12T10:56:34;6.13;;;4.35;;
22644;SDS011;11489;50.834;6.752;2023-09-12T11:01:35;5.35;;;4.80;;
22644;SDS011;11489;50.834;6.752;2023-09-12T11:04:29;7.10;;;4.07;;
22644;SDS011;11489;50.834;6.752;2023-09-12T11:06:58;5.55;;;3.80;;
22644;SDS011;11489;50.834;6.752;2023-09-12T11:09:24;4.97;;;4.20;;
22644;SDS011;11489;50.834;6.752;2023-09-12T11:14:18;5.43;;;3.95;;
22644;SDS011;11489;50.834;6.752;2023-09-12T11:19:45;6.38;;;4.55;;
22644;SDS011;11489;50.834;6.752;2023-09-12T11:22:24;7.30;;;4.13;;
22644;SDS011;11489;50.834;6.752;2023-09-12T11:24:51;4.25;;;3.72;;
22644;SDS011;11489;50.834;6.752;2023-09-12T11:27:18;4.65;;;3.50;;
22644;SDS011;11489;50.834;6.752;2023-09-12T11:29:44;3.85;;;3.50;;
22644;SDS011;11489;50.834;6.752;2023-09-12T11:32:11;7.38;;;3.58;;
22644;SDS011;11489;50.834;6.752;2023-09-12T11:34:55;4.47;;;3.75;;
22644;SDS011;11489;50.834;6.752;2023-09-12T11:37:25;4.13;;;3.70;;
22644;SDS011;11489;50.834;6.752;2023-09-12T11:39:52;7.35;;;4.03;;
22644;SDS011;11489;50.834;6.752;2023-09-12T11:42:18;4.63;;;3.60;;
22644;SDS011;11489;50.834;6.752;2023-09-12T11:44:46;3.83;;;3.20;;
22644;SDS011;11489;50.834;6.752;2023-09-12T11:47:13;4.53;;;3.30;;
22644;SDS011;11489;50.834;6.752;2023-09-12T11:49:40;3.75;;;3.30;;
22644;SDS011;11489;50.834;6.752;2023-09-12T11:52:13;4.00;;;3.10;;
22644;SDS011;11489;50.834;6.752;2023-09-12T11:54:41;5.05;;;3.50;;
22644;SDS011;11489;50.834;6.752;2023-09-12T11:57:08;3.47;;;3.08;;
22644;SDS011;11489;50.834;6.752;2023-09-12T11:59:42;5.28;;;3.00;;
22644;SDS011;11489;50.834;6.752;2023-09-12T12:02:13;4.35;;;3.53;;
22644;SDS011;11489;50.834;6.752;2023-09-12T12:04:39;4.57;;;3.60;;
22644;SDS011;11489;50.834;6.752;2023-09-12T12:07:06;3.63;;;3.33;;
22644;SDS011;11489;50.834;6.752;2023-09-12T12:09:33;3.92;;;3.53;;
22644;SDS011;11489;50.834;6.752;2023-09-12T12:12:03;4.60;;;3.58;;
22644;SDS011;11489;50.834;6.752;2023-09-12T12:14:33;5.25;;;3.60;;
22644;SDS011;11489;50.834;6.752;2023-09-12T12:17:10;4.93;;;3.88;;
22644;SDS011;11489;50.834;6.752;2023-09-12T12:19:36;7.55;;;4.38;;
22644;SDS011;11489;50.834;6.752;2023-09-12T12:22:03;6.05;;;4.18;;
22644;SDS011;11489;50.834;6.752;2023-09-12T12:24:46;5.40;;;4.30;;
22644;SDS011;11489;50.834;6.752;2023-09-12T12:27:14;6.35;;;4.60;;
22644;SDS011;11489;50.834;6.752;2023-09-12T12:29:40;5.68;;;4.70;;
22644;SDS011;11489;50.834;6.752;2023-09-12T12:32:07;5.65;;;4.70;;
22644;SDS011;11489;50.834;6.752;2023-09-12T12:34:34;7.07;;;4.53;;
22644;SDS011;11489;50.834;6.752;2023-09-12T12:37:01;8.85;;;4.97;;
22644;SDS011;11489;50.834;6.752;2023-09-12T12:39:27;7.20;;;3.80;;
22644;SDS011;11489;50.834;6.752;2023-09-12T12:41:53;5.22;;;4.38;;
22644;SDS011;11489;50.834;6.752;2023-09-12T12:44:19;6.32;;;4.40;;
22644;SDS011;11489;50.834;6.752;2023-09-12T12:46:48;9.00;;;5.55;;
22644;SDS011;11489;50.834;6.752;2023-09-12T12:49:15;7.43;;;5.22;;
22644;SDS011;11489;50.834;6.752;2023-09-12T12:51:42;7.57;;;5.50;;
22644;SDS011;11489;50.834;6.752;2023-09-12T12:54:07;8.30;;;6.07;;
22644;SDS011;11489;50.834;6.752;2023-09-12T12:56:33;8.00;;;5.20;;
22644;SDS011;11489;50.834;6.752;2023-09-12T12:59:00;6.15;;;5.22;;
22644;SDS011;11489;50.834;6.752;2023-09-12T13:01:30;6.05;;;5.18;;
22644;SDS011;11489;50.834;6.752;2023-09-12T13:03:56;8.80;;;5.47;;
22644;SDS011;11489;50.834;6.752;2023-09-12T13:06:22;5.75;;;4.95;;
22644;SDS011;11489;50.834;6.752;2023-09-12T13:08:48;6.15;;;4.85;;
22644;SDS011;11489;50.834;6.752;2023-09-12T13:11:15;5.13;;;4.50;;
22644;SDS011;11489;50.834;6.752;2023-09-12T13:13:41;6.95;;;5.50;;
22644;SDS011;11489;50.834;6.752;2023-09-12T13:16:08;6.70;;;4.82;;
22644;SDS011;11489;50.834;6.752;2023-09-12T13:18:36;7.63;;;4.70;;
22644;SDS011;11489;50.834;6.752;2023-09-12T13:21:02;6.30;;;4.65;;
22644;SDS011;11489;50.834;6.752;2023-09-12T13:23:29;7.35;;;4.85;;
22644;SDS011;11489;50.834;6.752;2023-09-12T13:25:55;6.28;;;5.10;;
22644;SDS011;11489;50.834;6.752;2023-09-12T13:28:21;8.60;;;5.10;;
22644;SDS011;11489;50.834;6.752;2023-09-12T13:30:53;7.05;;;4.95;;
22644;SDS011;11489;50.834;6.752;2023-09-12T13:33:19;5.90;;;4.50;;
22644;SDS011;11489;50.834;6.752;2023-09-12T13:35:49;6.90;;;4.90;;
22644;SDS011;11489;50.834;6.752;2023-09-12T13:38:16;6.55;;;4.93;;
22644;SDS011;11489;50.834;6.752;2023-09-12T13:40:43;7.38;;;5.13;;
22644;SDS011;11489;50.834;6.752;2023-09-12T13:43:10;8.88;;;5.40;;
22644;SDS011;11489;50.834;6.752;2023-09-12T13:45:36;7.47;;;5.82;;
22644;SDS011;11489;50.834;6.752;2023-09-12T13:48:02;7.75;;;5.63;;
22644;SDS011;11489;50.834;6.752;2023-09-12T13:50:29;8.73;;;6.13;;
22644;SDS011;11489;50.834;6.752;2023-09-12T13:52:59;8.38;;;5.60;;
22644;SDS011;11489;50.834;6.752;2023-09-12T13:55:31;7.97;;;5.40;;
22644;SDS011;11489;50.834;6.752;2023-09-12T13:57:58;8.68;;;5.45;;
22644;SDS011;11489;50.834;6.752;2023-09-12T14:00:24;9.13;;;5.40;;
22644;SDS011;11489;50.834;6.752;2023-09-12T14:02:50;7.13;;;5.57;;
22644;SDS011;11489;50.834;6.752;2023-09-12T14:05:15;5.70;;;4.60;;
22644;SDS011;11489;50.834;6.752;2023-09-12T14:07:41;6.03;;;4.40;;
22644;SDS011;11489;50.834;6.752;2023-09-12T14:10:07;10.30;;;4.50;;
22644;SDS011;11489;50.834;6.752;2023-09-12T14:12:32;8.25;;;4.63;;
22644;SDS011;11489;50.834;6.752;2023-09-12T14:14:58;7.68;;;4.45;;
22644;SDS011;11489;50.834;6.752;2023-09-12T14:17:24;6.55;;;5.22;;
22644;SDS011;11489;50.834;6.752;2023-09-12T14:19:50;7.47;;;5.03;;
22644;SDS011;11489;50.834;6.752;2023-09-12T14:22:16;5.60;;;4.95;;
22644;SDS011;11489;50.834;6.752;2023-09-12T14:24:41;8.77;;;5.40;;
22644;SDS011;11489;50.834;6.752;2023-09-12T14:27:07;7.45;;;5.82;;
22644;SDS011;11489;50.834;6.752;2023-09-12T14:29:32;6.22;;;5.35;;
22644;SDS011;11489;50.834;6.752;2023-09-12T14:31:58;6.50;;;5.47;;
22644;SDS011;11489;50.834;6.752;2023-09-12T14:34:24;7.05;;;5.47;;
22644;SDS011;11489;50.834;6.752;2023-09-12T14:36:54;6.70;;;5.78;;
22644;SDS011;11489;50.834;6.752;2023-09-12T14:39:24;6.88;;;5.88;;
22644;SDS011;11489;50.834;6.752;2023-09-12T14:41:50;6.10;;;5.50;;
22644;SDS011;11489;50.834;6.752;2023-09-12T14:44:23;8.32;;;6.05;;
22644;SDS011;11489;50.834;6.752;2023-09-12T14:46:49;7.95;;;5.72;;
22644;SDS011;11489;50.834;6.752;2023-09-12T14:49:15;7.20;;;5.38;;